Time;durP1;ratioP1;P1;durP2;ratioP2;P2;SDS_P1;SDS_P2;PMS_P1;PMS_P2;Temp;Humidity;BMP_temperature;BMP_pressure;BME280_temperature;BME280_humidity;BME280_pressure;Samples;Min_cycle;Max_cycle;Signal;HPM_P1;HPM_P2
2024/03/11 00:02:11;;;;;;;46.35;31.67;;;;;;;;;;5051169;28;20025;-75
2024/03/11 00:04:38;;;;;;;46.15;33.67;;;;;;;;;;5050760;28;20349;-75
2024/03/11 00:07:04;;;;;;;50.15;34.00;;;;;;;;;;5050874;28;20165;-75
2024/03/11 00:09:32;;;;;;;47.20;33.55;;;;;;;;;;5052205;28;20120;-74
2024/03/11 00:11:59;;;;;;;49.13;32.08;;;;;;;;;;5052364;28;20540;-75
2024/03/11 00:14:28;;;;;;;50.13;36.80;;;;;;;;;;5052344;28;20049;-74
2024/03/11 00:16:54;;;;;;;49.70;35.15;;;;;;;;;;5050389;28;20031;-76
2024/03/11 00:19:21;;;;;;;47.92;34.72;;;;;;;;;;5052303;28;20036;-77
2024/03/11 00:21:48;;;;;;;24.08;16.05;;;;;;;;;;5051856;28;20051;-76
2024/03/11 00:24:14;;;;;;;46.20;32.00;;;;;;;;;;5052150;28;20090;-76
2024/03/11 00:26:40;;;;;;;44.30;30.48;;;;;;;;;;5050590;28;20032;-75
2024/03/11 00:29:06;;;;;;;21.15;14.13;;;;;;;;;;5052342;28;20483;-74
2024/03/11 00:31:34;;;;;;;46.47;32.03;;;;;;;;;;5051542;28;20468;-76
2024/03/11 00:34:00;;;;;;;44.40;32.05;;;;;;;;;;5050854;28;20021;-75
2024/03/11 00:36:26;;;;;;;46.40;35.08;;;;;;;;;;5050841;28;20025;-76
2024/03/11 00:38:52;;;;;;;48.08;34.83;;;;;;;;;;5050263;28;20032;-76
2024/03/11 00:41:18;;;;;;;40.92;28.00;;;;;;;;;;5050782;28;20460;-76
2024/03/11 00:43:45;;;;;;;49.80;33.95;;;;;;;;;;5051551;28;20032;-76
2024/03/11 00:46:12;;;;;;;47.38;31.98;;;;;;;;;;5050810;28;20025;-75
2024/03/11 00:48:38;;;;;;;43.25;29.75;;;;;;;;;;5050971;28;20060;-76
2024/03/11 00:51:04;;;;;;;37.30;25.55;;;;;;;;;;5050899;28;20041;-74
2024/03/11 00:53:30;;;;;;;39.97;24.60;;;;;;;;;;5051288;28;20021;-75
2024/03/11 00:55:57;;;;;;;34.63;22.10;;;;;;;;;;5050295;28;20017;-76
2024/03/11 00:58:26;;;;;;;44.75;31.25;;;;;;;;;;5051842;28;20028;-75
2024/03/11 01:00:52;;;;;;;43.75;30.90;;;;;;;;;;5054893;28;20116;-76
2024/03/11 01:03:19;;;;;;;40.75;27.60;;;;;;;;;;5054656;28;20061;-75
2024/03/11 01:05:45;;;;;;;40.88;27.70;;;;;;;;;;5055721;28;20025;-74
2024/03/11 01:08:11;;;;;;;39.38;29.27;;;;;;;;;;5054895;28;20457;-75
2024/03/11 01:10:37;;;;;;;41.30;28.20;;;;;;;;;;5054253;28;20036;-74
2024/03/11 01:13:04;;;;;;;46.22;31.77;;;;;;;;;;5055721;28;20124;-74
2024/03/11 01:15:30;;;;;;;47.10;33.53;;;;;;;;;;5056863;28;20021;-76
2024/03/11 01:17:56;;;;;;;41.33;27.13;;;;;;;;;;5055179;28;20044;-75
2024/03/11 01:20:24;;;;;;;20.02;13.48;;;;;;;;;;5055457;28;20203;-75
2024/03/11 01:22:50;;;;;;;46.67;32.70;;;;;;;;;;5053534;28;20103;-75
2024/03/11 01:25:20;;;;;;;50.30;34.88;;;;;;;;;;5055234;28;20017;-75
2024/03/11 01:27:46;;;;;;;42.55;29.38;;;;;;;;;;5054993;28;20096;-75
2024/03/11 01:30:14;;;;;;;22.75;14.82;;;;;;;;;;5053928;28;20039;-75
2024/03/11 01:32:44;;;;;;;27.58;18.73;;;;;;;;;;5054981;28;20017;-75
2024/03/11 01:35:13;;;;;;;45.33;31.60;;;;;;;;;;5053850;28;20032;-75
2024/03/11 01:37:42;;;;;;;48.90;34.07;;;;;;;;;;5053606;28;20021;-74
2024/03/11 01:40:13;;;;;;;48.08;33.53;;;;;;;;;;5055004;28;20033;-75
2024/03/11 01:42:42;;;;;;;44.85;32.72;;;;;;;;;;5053468;28;20032;-74
2024/03/11 01:45:08;;;;;;;51.47;36.80;;;;;;;;;;5053602;28;20090;-74
2024/03/11 01:47:34;;;;;;;51.20;36.97;;;;;;;;;;5053570;28;20029;-74
2024/03/11 01:50:00;;;;;;;52.90;36.65;;;;;;;;;;5053197;28;20400;-74
2024/03/11 01:52:28;;;;;;;48.38;35.33;;;;;;;;;;5053494;28;20021;-74
2024/03/11 01:54:56;;;;;;;49.80;35.30;;;;;;;;;;5054765;28;20414;-74
2024/03/11 01:57:24;;;;;;;48.40;33.85;;;;;;;;;;5053475;28;20025;-75
2024/03/11 01:59:52;;;;;;;50.60;36.72;;;;;;;;;;5053125;28;20053;-76
2024/03/11 02:02:20;;;;;;;44.80;30.90;;;;;;;;;;5054913;28;20480;-76
2024/03/11 02:04:47;;;;;;;44.13;33.10;;;;;;;;;;5052999;28;20025;-76
2024/03/11 02:07:13;;;;;;;50.63;35.30;;;;;;;;;;5053226;28;20029;-76
2024/03/11 02:09:40;;;;;;;54.95;38.50;;;;;;;;;;5054183;28;20099;-76
2024/03/11 02:12:08;;;;;;;51.95;36.55;;;;;;;;;;5052132;28;20061;-75
2024/03/11 02:14:35;;;;;;;52.83;37.70;;;;;;;;;;5054157;28;20052;-76
2024/03/11 02:17:01;;;;;;;48.08;33.05;;;;;;;;;;5052793;28;20021;-75
2024/03/11 02:19:27;;;;;;;53.17;36.53;;;;;;;;;;5053005;28;20469;-74
2024/03/11 02:21:53;;;;;;;54.50;38.00;;;;;;;;;;5054230;28;20056;-75
2024/03/11 02:24:20;;;;;;;47.70;34.45;;;;;;;;;;5052743;28;20017;-75
2024/03/11 02:26:48;;;;;;;54.97;39.85;;;;;;;;;;5054171;28;20029;-75
2024/03/11 02:29:17;;;;;;;43.55;29.02;;;;;;;;;;5052567;28;20112;-74
2024/03/11 02:31:47;;;;;;;50.45;37.42;;;;;;;;;;5053830;28;20092;-75
2024/03/11 02:34:13;;;;;;;50.17;34.53;;;;;;;;;;5053057;28;20128;-76
2024/03/11 02:36:46;;;;;;;54.72;38.85;;;;;;;;;;5053042;28;20457;-75
2024/03/11 02:39:14;;;;;;;55.17;38.75;;;;;;;;;;5053500;28;20033;-76
2024/03/11 02:41:40;;;;;;;55.15;37.78;;;;;;;;;;5052825;28;20024;-75
2024/03/11 02:44:08;;;;;;;60.35;40.70;;;;;;;;;;5054364;28;20029;-76
2024/03/11 02:46:34;;;;;;;33.45;20.88;;;;;;;;;;5054151;28;20052;-75
2024/03/11 02:49:01;;;;;;;46.67;32.63;;;;;;;;;;5054001;28;20111;-75
2024/03/11 02:51:27;;;;;;;47.20;31.98;;;;;;;;;;5052740;28;20025;-76
2024/03/11 02:53:53;;;;;;;51.45;36.22;;;;;;;;;;5052435;28;20384;-75
2024/03/11 02:56:19;;;;;;;47.70;32.88;;;;;;;;;;5052602;28;20025;-75
2024/03/11 02:58:45;;;;;;;43.70;29.98;;;;;;;;;;5052096;28;20362;-75
2024/03/11 03:01:13;;;;;;;57.40;39.35;;;;;;;;;;5053606;28;20278;-76
2024/03/11 03:03:39;;;;;;;61.15;42.08;;;;;;;;;;5053848;28;20025;-76
2024/03/11 03:06:06;;;;;;;63.95;44.17;;;;;;;;;;5051908;28;20085;-76
2024/03/11 03:08:32;;;;;;;60.75;40.58;;;;;;;;;;5053124;28;20025;-75
2024/03/11 03:11:02;;;;;;;59.20;42.10;;;;;;;;;;5054049;28;20507;-75
2024/03/11 03:13:29;;;;;;;64.07;44.72;;;;;;;;;;5053581;28;20049;-76
2024/03/11 03:15:56;;;;;;;63.05;43.83;;;;;;;;;;5051762;28;20032;-76
2024/03/11 03:18:23;;;;;;;64.82;44.10;;;;;;;;;;5051970;28;20025;-76
2024/03/11 03:20:49;;;;;;;60.70;41.85;;;;;;;;;;5052678;28;20437;-75
2024/03/11 03:23:17;;;;;;;65.25;46.72;;;;;;;;;;5051437;28;20048;-76
2024/03/11 03:25:43;;;;;;;63.38;44.25;;;;;;;;;;5051671;28;20414;-77
2024/03/11 03:28:09;;;;;;;62.75;43.80;;;;;;;;;;5051892;28;20017;-77
2024/03/11 03:30:35;;;;;;;63.33;44.35;;;;;;;;;;5051622;28;20036;-77
2024/03/11 03:33:04;;;;;;;60.28;42.67;;;;;;;;;;5051522;28;20025;-77
2024/03/11 03:35:31;;;;;;;65.33;44.37;;;;;;;;;;5051650;28;20048;-78
2024/03/11 03:37:57;;;;;;;69.80;44.10;;;;;;;;;;5052459;28;20030;-76
2024/03/11 03:40:23;;;;;;;66.47;45.00;;;;;;;;;;5051523;28;20032;-78
2024/03/11 03:42:50;;;;;;;66.57;44.95;;;;;;;;;;5052302;28;20024;-77
2024/03/11 03:45:17;;;;;;;64.03;44.42;;;;;;;;;;5051145;28;20032;-77
2024/03/11 03:47:44;;;;;;;69.13;44.65;;;;;;;;;;5051380;28;20079;-77
2024/03/11 03:50:10;;;;;;;53.20;34.97;;;;;;;;;;5051304;28;20040;-74
2024/03/11 03:52:43;;;;;;;64.63;43.45;;;;;;;;;;5051003;28;20021;-75
2024/03/11 03:55:14;;;;;;;68.65;45.38;;;;;;;;;;5052484;28;20021;-75
2024/03/11 03:57:40;;;;;;;70.78;47.25;;;;;;;;;;5050880;28;20037;-75
2024/03/11 04:00:15;;;;;;;69.65;48.35;;;;;;;;;;5050958;28;20321;-75
2024/03/11 04:02:42;;;;;;;72.78;48.33;;;;;;;;;;5052645;28;20028;-76
2024/03/11 04:05:09;;;;;;;74.13;48.38;;;;;;;;;;5050949;28;20150;-73
2024/03/11 04:07:35;;;;;;;62.45;40.67;;;;;;;;;;5051109;28;20112;-75
2024/03/11 04:10:01;;;;;;;61.55;41.70;;;;;;;;;;5050762;28;20044;-74
2024/03/11 04:12:28;;;;;;;57.03;36.53;;;;;;;;;;5052162;28;20021;-75
2024/03/11 04:14:55;;;;;;;58.83;39.65;;;;;;;;;;5050450;28;20032;-75
2024/03/11 04:17:22;;;;;;;63.28;42.40;;;;;;;;;;5050960;28;20021;-75
2024/03/11 04:19:48;;;;;;;72.32;45.90;;;;;;;;;;5050642;28;20056;-75
2024/03/11 04:22:14;;;;;;;62.13;41.10;;;;;;;;;;5050594;28;20045;-74
2024/03/11 04:24:41;;;;;;;71.95;47.30;;;;;;;;;;5051043;28;20525;-74
2024/03/11 04:27:11;;;;;;;73.85;48.05;;;;;;;;;;5051124;28;20033;-77
2024/03/11 04:29:37;;;;;;;75.73;47.13;;;;;;;;;;5051151;28;20033;-76
2024/03/11 04:32:03;;;;;;;54.00;35.45;;;;;;;;;;5050965;28;20025;-76
2024/03/11 04:34:29;;;;;;;65.43;42.58;;;;;;;;;;5056195;28;20024;-77
2024/03/11 04:36:56;;;;;;;69.30;44.72;;;;;;;;;;5058152;28;20025;-77
2024/03/11 04:39:22;;;;;;;55.72;35.20;;;;;;;;;;5057132;28;20033;-77
2024/03/11 04:41:48;;;;;;;58.20;38.67;;;;;;;;;;5058835;28;20083;-76
2024/03/11 04:44:14;;;;;;;65.68;42.85;;;;;;;;;;5058827;28;20020;-76
2024/03/11 04:46:40;;;;;;;67.55;43.72;;;;;;;;;;5057438;28;20037;-76
2024/03/11 04:49:06;;;;;;;44.70;28.67;;;;;;;;;;5060087;28;20067;-75
2024/03/11 04:51:32;;;;;;;52.63;35.40;;;;;;;;;;5078328;28;20055;-76
2024/03/11 04:54:02;;;;;;;62.97;42.28;;;;;;;;;;5078050;28;20028;-75
2024/03/11 04:56:30;;;;;;;56.92;36.28;;;;;;;;;;5077373;28;20020;-77
2024/03/11 04:58:56;;;;;;;21.85;13.57;;;;;;;;;;5077071;28;20063;-76
2024/03/11 05:01:23;;;;;;;19.33;12.48;;;;;;;;;;5078686;28;20025;-75
2024/03/11 05:03:49;;;;;;;45.03;29.13;;;;;;;;;;5077536;28;20042;-76
2024/03/11 05:06:15;;;;;;;36.92;24.00;;;;;;;;;;5079214;28;20028;-76
2024/03/11 05:08:41;;;;;;;59.33;41.33;;;;;;;;;;5078879;28;20024;-76
2024/03/11 05:11:07;;;;;;;28.23;18.30;;;;;;;;;;5077544;28;20032;-76
2024/03/11 05:13:33;;;;;;;61.38;41.95;;;;;;;;;;5079086;28;20420;-76
2024/03/11 05:15:59;;;;;;;68.72;46.85;;;;;;;;;;5077989;28;20028;-77
2024/03/11 05:18:26;;;;;;;71.60;47.22;;;;;;;;;;5078165;28;20021;-76
2024/03/11 05:20:54;;;;;;;69.05;47.90;;;;;;;;;;5076938;28;20459;-76
2024/03/11 05:23:20;;;;;;;64.72;41.60;;;;;;;;;;5078605;28;20127;-78
2024/03/11 05:25:47;;;;;;;51.47;34.38;;;;;;;;;;5077300;28;20067;-77
2024/03/11 05:28:13;;;;;;;73.57;46.05;;;;;;;;;;5067791;28;20025;-76
2024/03/11 05:30:40;;;;;;;50.25;32.50;;;;;;;;;;5056879;28;20021;-76
2024/03/11 05:33:06;;;;;;;68.05;46.55;;;;;;;;;;5056646;28;20032;-76
2024/03/11 05:35:32;;;;;;;65.50;45.53;;;;;;;;;;5058436;28;20044;-76
2024/03/11 05:38:00;;;;;;;70.78;47.35;;;;;;;;;;5057987;28;20021;-76
2024/03/11 05:40:26;;;;;;;68.03;43.97;;;;;;;;;;5056707;28;20064;-76
2024/03/11 05:42:52;;;;;;;61.53;42.47;;;;;;;;;;5057978;28;20025;-75
2024/03/11 05:45:18;;;;;;;55.00;37.42;;;;;;;;;;5057662;28;20531;-76
2024/03/11 05:47:45;;;;;;;66.72;45.58;;;;;;;;;;5053388;28;20021;-76
2024/03/11 05:50:16;;;;;;;60.45;38.42;;;;;;;;;;5053367;28;20174;-76
2024/03/11 05:52:45;;;;;;;43.42;27.27;;;;;;;;;;5054919;28;20036;-77
2024/03/11 05:55:11;;;;;;;65.73;44.23;;;;;;;;;;5053384;28;20025;-76
2024/03/11 05:57:39;;;;;;;60.08;39.35;;;;;;;;;;5053459;28;20059;-75
2024/03/11 06:00:09;;;;;;;61.20;40.17;;;;;;;;;;5053217;28;20564;-75
2024/03/11 06:02:39;;;;;;;69.88;43.35;;;;;;;;;;5053127;28;20060;-74
2024/03/11 06:05:05;;;;;;;57.90;37.67;;;;;;;;;;5054259;28;20546;-75
2024/03/11 06:07:33;;;;;;;36.90;25.95;;;;;;;;;;5053273;28;20032;-74
2024/03/11 06:09:59;;;;;;;69.13;45.30;;;;;;;;;;5052934;28;20473;-75
2024/03/11 06:12:28;;;;;;;71.50;46.97;;;;;;;;;;5053037;28;20090;-75
2024/03/11 06:14:54;;;;;;;71.30;45.47;;;;;;;;;;5052818;28;20036;-76
2024/03/11 06:17:20;;;;;;;69.38;48.05;;;;;;;;;;5052886;28;20171;-75
2024/03/11 06:19:47;;;;;;;76.45;49.38;;;;;;;;;;5053473;28;20492;-74
2024/03/11 06:22:15;;;;;;;74.32;47.97;;;;;;;;;;5053263;28;20148;-75
2024/03/11 06:24:41;;;;;;;72.28;48.40;;;;;;;;;;5056053;28;20033;-75
2024/03/11 06:27:08;;;;;;;73.95;48.50;;;;;;;;;;5072334;28;20056;-74
2024/03/11 06:29:35;;;;;;;75.72;49.60;;;;;;;;;;5072754;28;20025;-75
2024/03/11 06:32:04;;;;;;;75.28;50.08;;;;;;;;;;5072563;28;20036;-75
2024/03/11 06:34:30;;;;;;;80.28;50.83;;;;;;;;;;5074131;28;20020;-73
2024/03/11 06:36:56;;;;;;;77.00;51.42;;;;;;;;;;5072496;28;20028;-74
2024/03/11 06:39:22;;;;;;;80.35;51.92;;;;;;;;;;5073923;28;20031;-74
2024/03/11 06:41:48;;;;;;;76.85;50.03;;;;;;;;;;5073796;28;20017;-75
2024/03/11 06:44:14;;;;;;;75.88;51.60;;;;;;;;;;5073894;28;20126;-74
2024/03/11 06:46:40;;;;;;;83.80;52.08;;;;;;;;;;5072632;28;20503;-74
2024/03/11 06:49:06;;;;;;;79.18;49.88;;;;;;;;;;5072294;28;20491;-75
2024/03/11 06:51:32;;;;;;;83.38;52.00;;;;;;;;;;5072525;28;20464;-74
2024/03/11 06:53:59;;;;;;;80.82;50.75;;;;;;;;;;5073399;28;20016;-75
2024/03/11 06:56:26;;;;;;;81.22;50.97;;;;;;;;;;5073351;28;20062;-75
2024/03/11 06:58:52;;;;;;;78.70;52.60;;;;;;;;;;5072703;28;20025;-74
2024/03/11 07:01:18;;;;;;;78.45;50.35;;;;;;;;;;5073234;28;20040;-76
2024/03/11 07:03:44;;;;;;;82.40;52.10;;;;;;;;;;5072455;28;20044;-76
2024/03/11 07:06:10;;;;;;;87.90;54.35;;;;;;;;;;5072046;28;20457;-74
2024/03/11 07:08:37;;;;;;;84.53;53.60;;;;;;;;;;5074045;28;20025;-73
2024/03/11 07:11:03;;;;;;;76.50;50.78;;;;;;;;;;5072668;28;20441;-74
2024/03/11 07:13:31;;;;;;;90.07;54.65;;;;;;;;;;5073999;28;20036;-74
2024/03/11 07:15:58;;;;;;;83.15;54.58;;;;;;;;;;5071786;28;20017;-75
2024/03/11 07:18:24;;;;;;;76.50;49.03;;;;;;;;;;5073068;28;20025;-74
2024/03/11 07:20:55;;;;;;;83.63;50.22;;;;;;;;;;5071901;28;20582;-74
2024/03/11 07:23:21;;;;;;;72.13;45.97;;;;;;;;;;5071622;28;20131;-74
2024/03/11 07:25:47;;;;;;;71.93;44.30;;;;;;;;;;5072932;28;20024;-74
2024/03/11 07:28:13;;;;;;;74.25;45.10;;;;;;;;;;5071392;28;20027;-74
2024/03/11 07:30:40;;;;;;;63.35;42.33;;;;;;;;;;5072989;28;20484;-74
2024/03/11 07:33:14;;;;;;;72.70;46.05;;;;;;;;;;5071534;28;20123;-74
2024/03/11 07:35:43;;;;;;;73.97;48.17;;;;;;;;;;5071608;28;20154;-74
2024/03/11 07:38:10;;;;;;;68.93;44.22;;;;;;;;;;5071145;28;20081;-73
2024/03/11 07:40:37;;;;;;;66.43;41.10;;;;;;;;;;5072746;28;20476;-74
2024/03/11 07:43:03;;;;;;;64.25;41.28;;;;;;;;;;5072740;28;20406;-74
2024/03/11 07:45:30;;;;;;;67.70;47.17;;;;;;;;;;5072870;28;20013;-74
2024/03/11 07:47:56;;;;;;;68.15;44.75;;;;;;;;;;5072744;28;20059;-75
2024/03/11 07:50:23;;;;;;;62.13;42.53;;;;;;;;;;5071306;28;20124;-73
2024/03/11 07:52:49;;;;;;;63.95;44.35;;;;;;;;;;5071305;28;20373;-75
2024/03/11 07:55:17;;;;;;;37.03;24.98;;;;;;;;;;5072726;28;20020;-74
2024/03/11 07:57:43;;;;;;;50.95;33.83;;;;;;;;;;5072599;28;20035;-75
2024/03/11 08:00:09;;;;;;;54.55;36.88;;;;;;;;;;5071135;28;20170;-76
2024/03/11 08:02:36;;;;;;;48.28;32.45;;;;;;;;;;5071255;28;20031;-74
2024/03/11 08:05:03;;;;;;;42.92;26.75;;;;;;;;;;5072561;28;20024;-75
2024/03/11 08:07:32;;;;;;;40.10;25.73;;;;;;;;;;5072523;28;20016;-74
2024/03/11 08:10:01;;;;;;;46.95;31.67;;;;;;;;;;5070167;28;20028;-74
2024/03/11 08:12:32;;;;;;;49.28;35.38;;;;;;;;;;5071911;28;20101;-75
2024/03/11 08:14:59;;;;;;;38.20;25.55;;;;;;;;;;5073896;28;20586;-74
2024/03/11 08:17:25;;;;;;;54.50;37.90;;;;;;;;;;5072395;28;20020;-74
2024/03/11 08:19:52;;;;;;;58.75;41.00;;;;;;;;;;5072392;28;20031;-74
2024/03/11 08:22:18;;;;;;;60.65;39.80;;;;;;;;;;5070378;28;20423;-74
2024/03/11 08:24:44;;;;;;;50.90;34.00;;;;;;;;;;5071016;28;20016;-74
2024/03/11 08:27:10;;;;;;;62.15;41.75;;;;;;;;;;5072077;28;20121;-74
2024/03/11 08:29:36;;;;;;;63.08;42.47;;;;;;;;;;5072417;28;20031;-74
2024/03/11 08:32:05;;;;;;;68.95;45.53;;;;;;;;;;5071723;28;20211;-73
2024/03/11 08:34:31;;;;;;;64.03;44.67;;;;;;;;;;5072223;28;20480;-73
2024/03/11 08:36:57;;;;;;;69.13;46.20;;;;;;;;;;5071984;28;20118;-73
2024/03/11 08:39:26;;;;;;;46.75;30.95;;;;;;;;;;5071618;28;20055;-76
2024/03/11 08:41:53;;;;;;;65.43;40.60;;;;;;;;;;5070761;28;20028;-75
2024/03/11 08:44:19;;;;;;;67.25;45.05;;;;;;;;;;5070609;28;20052;-75
2024/03/11 08:46:45;;;;;;;73.90;46.97;;;;;;;;;;5070797;28;20515;-75
2024/03/11 08:49:11;;;;;;;70.65;45.92;;;;;;;;;;5071795;28;20016;-75
2024/03/11 08:51:41;;;;;;;73.50;45.85;;;;;;;;;;5070735;28;20423;-74
2024/03/11 08:54:07;;;;;;;67.90;44.75;;;;;;;;;;5070425;28;20419;-74
2024/03/11 08:56:34;;;;;;;57.38;36.28;;;;;;;;;;5070642;28;20111;-75
2024/03/11 08:59:10;;;;;;;64.88;42.42;;;;;;;;;;5070509;28;20024;-74
2024/03/11 09:01:40;;;;;;;68.68;47.50;;;;;;;;;;5070513;28;20389;-73
2024/03/11 09:04:10;;;;;;;68.13;41.65;;;;;;;;;;5070552;28;20017;-75
2024/03/11 09:06:38;;;;;;;47.67;29.35;;;;;;;;;;5071105;28;20481;-73
2024/03/11 09:09:04;;;;;;;68.00;45.15;;;;;;;;;;5070991;28;20127;-74
2024/03/11 09:11:31;;;;;;;70.85;45.03;;;;;;;;;;5072871;28;20017;-74
2024/03/11 09:13:59;;;;;;;72.53;45.58;;;;;;;;;;5071446;28;20028;-74
2024/03/11 09:16:30;;;;;;;78.82;48.40;;;;;;;;;;5070380;28;20075;-75
2024/03/11 09:18:56;;;;;;;61.47;39.92;;;;;;;;;;5071874;28;20115;-74
2024/03/11 09:21:22;;;;;;;72.03;46.72;;;;;;;;;;5072470;28;20025;-75
2024/03/11 09:23:49;;;;;;;78.40;47.88;;;;;;;;;;5074328;28;20021;-74
2024/03/11 09:26:17;;;;;;;71.93;48.55;;;;;;;;;;5073808;28;20025;-74
2024/03/11 09:28:46;;;;;;;75.75;48.70;;;;;;;;;;5074106;28;20058;-74
2024/03/11 09:31:13;;;;;;;74.97;49.10;;;;;;;;;;5075081;28;20033;-74
2024/03/11 09:33:41;;;;;;;75.47;49.58;;;;;;;;;;5073844;28;20028;-75
2024/03/11 09:36:07;;;;;;;76.38;49.28;;;;;;;;;;5073514;28;20021;-75
2024/03/11 09:38:33;;;;;;;64.78;39.50;;;;;;;;;;5074940;28;20109;-74
2024/03/11 09:41:01;;;;;;;70.78;44.20;;;;;;;;;;5073567;28;20033;-74
2024/03/11 09:43:27;;;;;;;71.88;47.22;;;;;;;;;;5074600;28;20017;-76
2024/03/11 09:45:54;;;;;;;69.15;43.75;;;;;;;;;;5073593;28;20112;-76
2024/03/11 09:48:20;;;;;;;72.43;47.42;;;;;;;;;;5074785;28;20056;-77
2024/03/11 09:50:47;;;;;;;74.47;47.17;;;;;;;;;;5073415;28;20178;-76
2024/03/11 09:53:13;;;;;;;51.08;31.23;;;;;;;;;;5074560;28;20025;-76
2024/03/11 09:55:43;;;;;;;51.47;31.98;;;;;;;;;;5073500;28;20060;-74
2024/03/11 09:58:10;;;;;;;60.72;37.97;;;;;;;;;;5074567;28;20017;-75
2024/03/11 10:00:48;;;;;;;71.35;46.00;;;;;;;;;;5073302;28;20024;-75
2024/03/11 10:03:14;;;;;;;70.28;45.80;;;;;;;;;;5074744;28;20402;-76
2024/03/11 10:05:40;;;;;;;74.18;46.28;;;;;;;;;;5073188;28;20024;-75
2024/03/11 10:08:06;;;;;;;73.53;47.42;;;;;;;;;;5074199;28;20032;-74
2024/03/11 10:10:33;;;;;;;75.18;48.55;;;;;;;;;;5074787;28;20032;-74
2024/03/11 10:13:04;;;;;;;70.55;45.80;;;;;;;;;;5074249;28;20078;-75
2024/03/11 10:15:32;;;;;;;69.97;46.15;;;;;;;;;;5073038;28;20020;-77
2024/03/11 10:18:25;;;;;;;74.30;46.97;;;;;;;;;;5073045;28;20024;-75
2024/03/11 10:21:00;;;;;;;70.82;45.47;;;;;;;;;;5073041;28;20036;-75
2024/03/11 10:23:27;;;;;;;75.18;49.25;;;;;;;;;;5072437;28;20055;-74
2024/03/11 10:26:17;;;;;;;67.95;44.42;;;;;;;;;;5072698;28;20127;-74
2024/03/11 10:28:44;;;;;;;70.60;47.35;;;;;;;;;;5074315;28;20479;-77
2024/03/11 10:31:24;;;;;;;72.80;44.92;;;;;;;;;;5073689;28;20028;-77
2024/03/11 10:33:53;;;;;;;75.10;46.93;;;;;;;;;;5073340;28;20028;-76
2024/03/11 10:36:20;;;;;;;72.35;46.80;;;;;;;;;;5072403;28;20277;-76
2024/03/11 10:38:47;;;;;;;73.45;46.92;;;;;;;;;;5072495;28;20498;-76
2024/03/11 10:41:20;;;;;;;74.35;47.78;;;;;;;;;;5069081;28;20491;-76
2024/03/11 10:43:51;;;;;;;71.15;44.92;;;;;;;;;;5069008;28;20082;-76
2024/03/11 10:46:18;;;;;;;73.13;44.55;;;;;;;;;;5068694;28;20092;-77
2024/03/11 10:48:46;;;;;;;69.03;43.63;;;;;;;;;;5066326;28;20365;-76
2024/03/11 10:51:13;;;;;;;69.43;45.47;;;;;;;;;;5071745;28;20036;-76
2024/03/11 10:53:42;;;;;;;78.30;47.38;;;;;;;;;;5072449;28;20451;-77
2024/03/11 10:56:11;;;;;;;67.60;43.80;;;;;;;;;;5073507;28;20029;-76
2024/03/11 10:58:39;;;;;;;79.60;51.53;;;;;;;;;;5071955;28;20024;-76
2024/03/11 11:01:05;;;;;;;72.75;47.03;;;;;;;;;;5071830;28;20029;-74
2024/03/11 11:03:32;;;;;;;73.65;45.33;;;;;;;;;;5073154;28;20066;-75
2024/03/11 11:06:01;;;;;;;74.13;46.25;;;;;;;;;;5073233;28;20078;-75
2024/03/11 11:08:30;;;;;;;74.07;46.17;;;;;;;;;;5073771;28;20076;-75
2024/03/11 11:11:03;;;;;;;71.50;45.30;;;;;;;;;;5074553;28;20099;-75
2024/03/11 11:13:29;;;;;;;77.60;45.80;;;;;;;;;;5072979;28;20370;-74
2024/03/11 11:16:03;;;;;;;73.70;46.90;;;;;;;;;;5073896;28;20040;-74
2024/03/11 11:18:30;;;;;;;72.65;46.33;;;;;;;;;;5073231;28;20020;-75
2024/03/11 11:20:56;;;;;;;78.47;49.25;;;;;;;;;;5071709;28;20032;-75
2024/03/11 11:23:34;;;;;;;67.65;42.13;;;;;;;;;;5069644;28;20060;-76
2024/03/11 11:26:01;;;;;;;70.15;43.92;;;;;;;;;;5072995;28;20032;-77
2024/03/11 11:28:38;;;;;;;67.22;44.83;;;;;;;;;;5071832;28;20071;-75
2024/03/11 11:31:26;;;;;;;69.43;45.85;;;;;;;;;;5071256;28;20549;-76
2024/03/11 11:33:59;;;;;;;72.85;45.78;;;;;;;;;;5072794;28;20025;-77
2024/03/11 11:36:37;;;;;;;75.30;47.35;;;;;;;;;;5071390;28;20383;-75
2024/03/11 11:39:20;;;;;;;71.22;45.20;;;;;;;;;;5071196;28;20464;-74
2024/03/11 11:41:50;;;;;;;70.05;44.63;;;;;;;;;;5072770;28;20016;-75
2024/03/11 11:44:30;;;;;;;71.45;45.80;;;;;;;;;;5072435;28;20052;-74
2024/03/11 11:47:03;;;;;;;62.08;37.95;;;;;;;;;;5072703;28;20024;-74
2024/03/11 11:49:34;;;;;;;64.88;43.20;;;;;;;;;;5072470;28;20031;-74
2024/03/11 11:52:00;;;;;;;65.32;44.20;;;;;;;;;;5071278;28;20118;-74
2024/03/11 11:54:28;;;;;;;70.10;43.22;;;;;;;;;;5072291;28;20028;-74
2024/03/11 11:57:11;;;;;;;69.57;43.47;;;;;;;;;;5071150;28;20036;-74
2024/03/11 11:59:37;;;;;;;70.50;45.30;;;;;;;;;;5070990;28;20031;-74
2024/03/11 12:02:05;;;;;;;76.22;44.50;;;;;;;;;;5070563;28;20033;-74
2024/03/11 12:04:33;;;;;;;68.53;43.08;;;;;;;;;;5072184;28;20024;-75
2024/03/11 12:06:59;;;;;;;66.75;42.33;;;;;;;;;;5070923;28;20067;-75
2024/03/11 12:09:26;;;;;;;66.65;42.80;;;;;;;;;;5070412;28;20085;-75
2024/03/11 12:11:55;;;;;;;66.43;41.55;;;;;;;;;;5072065;28;20143;-74
2024/03/11 12:14:22;;;;;;;78.73;48.83;;;;;;;;;;5061017;28;20504;-74
2024/03/11 12:16:48;;;;;;;179.90;110.38;;;;;;;;;;5055306;28;20032;-74
2024/03/11 12:19:16;;;;;;;84.25;57.25;;;;;;;;;;5068697;28;20107;-74
2024/03/11 12:21:43;;;;;;;66.20;43.55;;;;;;;;;;5071945;28;20049;-74
2024/03/11 12:24:13;;;;;;;64.35;40.42;;;;;;;;;;5071622;28;20024;-74
2024/03/11 12:26:45;;;;;;;57.42;37.92;;;;;;;;;;5053962;28;20028;-74
2024/03/11 12:29:15;;;;;;;67.72;44.10;;;;;;;;;;5070273;28;20044;-75
2024/03/11 12:31:42;;;;;;;55.33;34.58;;;;;;;;;;5070466;28;20040;-74
2024/03/11 12:34:08;;;;;;;66.13;41.13;;;;;;;;;;5070180;28;20525;-74
2024/03/11 12:36:39;;;;;;;65.53;42.42;;;;;;;;;;5071828;28;20426;-74
2024/03/11 12:39:16;;;;;;;58.80;38.83;;;;;;;;;;5070335;28;20123;-74
2024/03/11 12:41:42;;;;;;;57.90;37.08;;;;;;;;;;5070604;28;20464;-74
2024/03/11 12:44:12;;;;;;;62.83;42.22;;;;;;;;;;5070355;28;20025;-74
2024/03/11 12:46:38;;;;;;;;;;;;;;;;;;5070857;28;20135;-75
2024/03/11 12:49:04;;;;;;;55.65;35.28;;;;;;;;;;5071596;28;19954;-75
2024/03/11 12:51:31;;;;;;;60.05;40.30;;;;;;;;;;5071802;28;20039;-75
2024/03/11 12:54:09;;;;;;;61.53;40.97;;;;;;;;;;5070581;28;20021;-74
2024/03/11 12:56:36;;;;;;;52.55;35.53;;;;;;;;;;5074724;28;20029;-74
2024/03/11 12:59:05;;;;;;;57.90;38.17;;;;;;;;;;5074647;28;20024;-74
2024/03/11 13:01:31;;;;;;;52.10;34.67;;;;;;;;;;5075946;28;20020;-74
2024/03/11 13:03:57;;;;;;;52.97;34.63;;;;;;;;;;5075913;28;20016;-74
2024/03/11 13:06:26;;;;;;;48.63;31.85;;;;;;;;;;5075599;28;20035;-73
2024/03/11 13:08:53;;;;;;;39.17;24.95;;;;;;;;;;5059975;28;20029;-74
2024/03/11 13:11:19;;;;;;;49.63;32.40;;;;;;;;;;5056194;28;20017;-74
2024/03/11 13:13:46;;;;;;;53.03;34.53;;;;;;;;;;5068073;28;20029;-75
2024/03/11 13:16:15;;;;;;;46.65;29.08;;;;;;;;;;5076560;28;20016;-74
2024/03/11 13:18:44;;;;;;;56.77;36.37;;;;;;;;;;5076986;28;20256;-75
2024/03/11 13:21:10;;;;;;;47.65;33.30;;;;;;;;;;5073934;28;20060;-75
2024/03/11 13:23:42;;;;;;;54.92;34.92;;;;;;;;;;5061033;28;20095;-73
2024/03/11 13:26:12;;;;;;;44.28;29.85;;;;;;;;;;5055035;28;20017;-74
2024/03/11 13:28:38;;;;;;;52.20;35.17;;;;;;;;;;5055281;28;20025;-75
2024/03/11 13:31:07;;;;;;;55.72;37.30;;;;;;;;;;5053684;28;20033;-75
2024/03/11 13:33:36;;;;;;;53.80;34.20;;;;;;;;;;5055126;28;20028;-74
2024/03/11 13:36:04;;;;;;;53.28;35.00;;;;;;;;;;5054817;28;20025;-75
2024/03/11 13:38:30;;;;;;;56.45;37.70;;;;;;;;;;5053873;28;20070;-74
2024/03/11 13:40:56;;;;;;;54.45;34.90;;;;;;;;;;5053749;28;20420;-74
2024/03/11 13:43:23;;;;;;;54.13;36.38;;;;;;;;;;5054971;28;20049;-73
2024/03/11 13:45:50;;;;;;;55.22;36.33;;;;;;;;;;5055471;28;20025;-75
2024/03/11 13:48:20;;;;;;;55.30;36.85;;;;;;;;;;5054766;28;20029;-74
2024/03/11 13:50:48;;;;;;;52.73;34.20;;;;;;;;;;5055060;28;20032;-74
2024/03/11 13:53:15;;;;;;;53.88;36.03;;;;;;;;;;5054980;28;20036;-74
2024/03/11 13:55:43;;;;;;;58.03;38.13;;;;;;;;;;5054947;28;20024;-74
2024/03/11 13:58:09;;;;;;;57.30;35.25;;;;;;;;;;5054808;28;20025;-75
2024/03/11 14:00:35;;;;;;;53.13;34.40;;;;;;;;;;5055019;28;20112;-74
2024/03/11 14:03:02;;;;;;;56.47;36.85;;;;;;;;;;5054774;28;20029;-75
2024/03/11 14:05:29;;;;;;;60.80;36.70;;;;;;;;;;5054376;28;20100;-75
2024/03/11 14:07:55;;;;;;;50.15;31.55;;;;;;;;;;5052089;28;20021;-74
2024/03/11 14:10:23;;;;;;;65.90;44.88;;;;;;;;;;5053051;28;20079;-75
2024/03/11 14:12:50;;;;;;;59.47;41.80;;;;;;;;;;5054605;28;20055;-75
2024/03/11 14:15:16;;;;;;;59.65;39.03;;;;;;;;;;5053012;28;20108;-75
2024/03/11 14:17:48;;;;;;;42.97;29.75;;;;;;;;;;5053125;28;20436;-74
2024/03/11 14:20:24;;;;;;;47.33;31.40;;;;;;;;;;5052909;28;20031;-74